sensor_id;sensor_type;location;lat;lon;timestamp;P1;durP1;ratioP1;P2;durP2;ratioP2
4895;SDS011;2463;49.948;8.472;2023-08-08T00:00:43;90.60;;;4.50;;
4895;SDS011;2463;49.948;8.472;2023-08-08T00:03:10;91.82;;;4.80;;
4895;SDS011;2463;49.948;8.472;2023-08-08T00:05:37;90.55;;;4.55;;
4895;SDS011;2463;49.948;8.472;2023-08-08T00:08:04;88.90;;;4.18;;
4895;SDS011;2463;49.948;8.472;2023-08-08T00:10:30;89.03;;;4.20;;
4895;SDS011;2463;49.948;8.472;2023-08-08T00:12:57;89.10;;;4.20;;
4895;SDS011;2463;49.948;8.472;2023-08-08T00:15:24;88.88;;;4.10;;
4895;SDS011;2463;49.948;8.472;2023-08-08T00:17:51;89.03;;;4.28;;
4895;SDS011;2463;49.948;8.472;2023-08-08T00:20:17;90.32;;;4.40;;
4895;SDS011;2463;49.948;8.472;2023-08-08T00:22:44;88.97;;;4.15;;
4895;SDS011;2463;49.948;8.472;2023-08-08T00:25:11;88.35;;;4.30;;
4895;SDS011;2463;49.948;8.472;2023-08-08T00:27:38;89.40;;;4.30;;
4895;SDS011;2463;49.948;8.472;2023-08-08T00:30:08;88.65;;;4.15;;
4895;SDS011;2463;49.948;8.472;2023-08-08T00:32:36;89.07;;;4.20;;
4895;SDS011;2463;49.948;8.472;2023-08-08T00:35:03;89.13;;;3.95;;
4895;SDS011;2463;49.948;8.472;2023-08-08T00:37:30;88.80;;;4.10;;
4895;SDS011;2463;49.948;8.472;2023-08-08T00:39:57;88.68;;;4.05;;
4895;SDS011;2463;49.948;8.472;2023-08-08T00:42:24;88.68;;;4.05;;
4895;SDS011;2463;49.948;8.472;2023-08-08T00:44:51;89.13;;;4.20;;
4895;SDS011;2463;49.948;8.472;2023-08-08T00:47:18;88.47;;;3.88;;
4895;SDS011;2463;49.948;8.472;2023-08-08T00:49:45;92.50;;;4.05;;
4895;SDS011;2463;49.948;8.472;2023-08-08T00:52:14;88.53;;;4.03;;
4895;SDS011;2463;49.948;8.472;2023-08-08T00:54:41;89.65;;;4.20;;
4895;SDS011;2463;49.948;8.472;2023-08-08T00:57:08;88.90;;;4.28;;
4895;SDS011;2463;49.948;8.472;2023-08-08T00:59:35;88.68;;;3.95;;
4895;SDS011;2463;49.948;8.472;2023-08-08T01:02:02;89.25;;;4.00;;
4895;SDS011;2463;49.948;8.472;2023-08-08T01:04:29;89.45;;;4.28;;
4895;SDS011;2463;49.948;8.472;2023-08-08T01:07:06;90.50;;;4.30;;
4895;SDS011;2463;49.948;8.472;2023-08-08T01:10:05;89.03;;;4.07;;
4895;SDS011;2463;49.948;8.472;2023-08-08T01:12:39;89.45;;;4.18;;
4895;SDS011;2463;49.948;8.472;2023-08-08T01:15:09;89.00;;;3.83;;
4895;SDS011;2463;49.948;8.472;2023-08-08T01:17:37;89.45;;;3.95;;
4895;SDS011;2463;49.948;8.472;2023-08-08T01:20:05;89.75;;;4.40;;
4895;SDS011;2463;49.948;8.472;2023-08-08T01:22:43;89.13;;;4.25;;
4895;SDS011;2463;49.948;8.472;2023-08-08T01:25:17;88.35;;;3.80;;
4895;SDS011;2463;49.948;8.472;2023-08-08T01:27:44;89.50;;;4.40;;
4895;SDS011;2463;49.948;8.472;2023-08-08T01:30:11;89.70;;;4.00;;
4895;SDS011;2463;49.948;8.472;2023-08-08T01:32:38;88.72;;;4.00;;
4895;SDS011;2463;49.948;8.472;2023-08-08T01:35:05;88.90;;;4.22;;
4895;SDS011;2463;49.948;8.472;2023-08-08T01:37:34;90.32;;;3.78;;
4895;SDS011;2463;49.948;8.472;2023-08-08T01:40:05;89.72;;;4.32;;
4895;SDS011;2463;49.948;8.472;2023-08-08T01:42:33;89.22;;;4.38;;
4895;SDS011;2463;49.948;8.472;2023-08-08T01:45:00;88.63;;;4.15;;
4895;SDS011;2463;49.948;8.472;2023-08-08T01:47:28;89.07;;;4.03;;
4895;SDS011;2463;49.948;8.472;2023-08-08T01:49:56;88.63;;;4.18;;
4895;SDS011;2463;49.948;8.472;2023-08-08T01:52:23;88.72;;;4.10;;
4895;SDS011;2463;49.948;8.472;2023-08-08T01:54:50;88.53;;;4.05;;
4895;SDS011;2463;49.948;8.472;2023-08-08T01:57:16;89.32;;;4.03;;
4895;SDS011;2463;49.948;8.472;2023-08-08T01:59:44;88.55;;;4.07;;
4895;SDS011;2463;49.948;8.472;2023-08-08T02:02:11;88.97;;;4.10;;
4895;SDS011;2463;49.948;8.472;2023-08-08T02:04:38;88.95;;;4.10;;
4895;SDS011;2463;49.948;8.472;2023-08-08T02:07:05;89.15;;;3.90;;
4895;SDS011;2463;49.948;8.472;2023-08-08T02:09:32;88.03;;;3.92;;
4895;SDS011;2463;49.948;8.472;2023-08-08T02:11:58;87.93;;;3.90;;
4895;SDS011;2463;49.948;8.472;2023-08-08T02:14:25;88.53;;;3.85;;
4895;SDS011;2463;49.948;8.472;2023-08-08T02:16:52;88.43;;;3.90;;
4895;SDS011;2463;49.948;8.472;2023-08-08T02:19:19;88.63;;;4.05;;
4895;SDS011;2463;49.948;8.472;2023-08-08T02:21:46;89.82;;;4.30;;
4895;SDS011;2463;49.948;8.472;2023-08-08T02:24:12;89.25;;;4.00;;
4895;SDS011;2463;49.948;8.472;2023-08-08T02:26:39;88.78;;;4.15;;
4895;SDS011;2463;49.948;8.472;2023-08-08T02:29:06;88.82;;;4.10;;
4895;SDS011;2463;49.948;8.472;2023-08-08T02:31:32;89.03;;;4.20;;
4895;SDS011;2463;49.948;8.472;2023-08-08T02:33:59;88.72;;;4.10;;
4895;SDS011;2463;49.948;8.472;2023-08-08T02:36:26;89.53;;;4.40;;
4895;SDS011;2463;49.948;8.472;2023-08-08T02:38:53;88.93;;;4.30;;
4895;SDS011;2463;49.948;8.472;2023-08-08T02:41:20;88.38;;;3.85;;
4895;SDS011;2463;49.948;8.472;2023-08-08T02:43:47;89.03;;;4.18;;
4895;SDS011;2463;49.948;8.472;2023-08-08T02:46:14;89.85;;;4.40;;
4895;SDS011;2463;49.948;8.472;2023-08-08T02:48:40;88.63;;;3.90;;
4895;SDS011;2463;49.948;8.472;2023-08-08T02:51:07;88.68;;;3.92;;
4895;SDS011;2463;49.948;8.472;2023-08-08T02:53:34;89.35;;;4.15;;
4895;SDS011;2463;49.948;8.472;2023-08-08T02:56:00;89.63;;;4.18;;
4895;SDS011;2463;49.948;8.472;2023-08-08T02:58:27;89.10;;;4.00;;
4895;SDS011;2463;49.948;8.472;2023-08-08T03:00:54;88.80;;;3.65;;
4895;SDS011;2463;49.948;8.472;2023-08-08T03:03:21;89.55;;;4.40;;
4895;SDS011;2463;49.948;8.472;2023-08-08T03:05:47;89.20;;;4.05;;
4895;SDS011;2463;49.948;8.472;2023-08-08T03:08:14;90.10;;;4.28;;
4895;SDS011;2463;49.948;8.472;2023-08-08T03:10:41;89.43;;;4.40;;
4895;SDS011;2463;49.948;8.472;2023-08-08T03:13:08;88.68;;;4.00;;
4895;SDS011;2463;49.948;8.472;2023-08-08T03:15:35;89.90;;;4.43;;
4895;SDS011;2463;49.948;8.472;2023-08-08T03:18:02;90.13;;;4.25;;
4895;SDS011;2463;49.948;8.472;2023-08-08T03:20:29;91.50;;;4.45;;
4895;SDS011;2463;49.948;8.472;2023-08-08T03:22:56;88.78;;;4.10;;
4895;SDS011;2463;49.948;8.472;2023-08-08T03:25:23;89.22;;;4.18;;
4895;SDS011;2463;49.948;8.472;2023-08-08T03:27:49;89.72;;;4.10;;
4895;SDS011;2463;49.948;8.472;2023-08-08T03:30:16;89.65;;;4.25;;
4895;SDS011;2463;49.948;8.472;2023-08-08T03:32:43;89.60;;;4.40;;
4895;SDS011;2463;49.948;8.472;2023-08-08T03:35:10;90.15;;;4.40;;
4895;SDS011;2463;49.948;8.472;2023-08-08T03:37:37;89.72;;;4.40;;
4895;SDS011;2463;49.948;8.472;2023-08-08T03:40:04;89.28;;;4.22;;
4895;SDS011;2463;49.948;8.472;2023-08-08T03:42:33;89.38;;;4.20;;
4895;SDS011;2463;49.948;8.472;2023-08-08T03:45:00;89.68;;;4.35;;
4895;SDS011;2463;49.948;8.472;2023-08-08T03:47:27;89.93;;;4.28;;
4895;SDS011;2463;49.948;8.472;2023-08-08T03:49:55;90.15;;;4.28;;
4895;SDS011;2463;49.948;8.472;2023-08-08T03:52:23;89.97;;;4.13;;
4895;SDS011;2463;49.948;8.472;2023-08-08T03:54:51;89.22;;;3.90;;
4895;SDS011;2463;49.948;8.472;2023-08-08T03:57:18;90.38;;;4.30;;
4895;SDS011;2463;49.948;8.472;2023-08-08T03:59:45;89.93;;;4.50;;
4895;SDS011;2463;49.948;8.472;2023-08-08T04:02:12;90.82;;;4.38;;
4895;SDS011;2463;49.948;8.472;2023-08-08T04:04:39;89.63;;;4.28;;
4895;SDS011;2463;49.948;8.472;2023-08-08T04:07:05;89.47;;;4.22;;
4895;SDS011;2463;49.948;8.472;2023-08-08T04:09:32;90.85;;;4.90;;
4895;SDS011;2463;49.948;8.472;2023-08-08T04:11:59;89.60;;;4.30;;
4895;SDS011;2463;49.948;8.472;2023-08-08T04:14:26;92.30;;;5.60;;
4895;SDS011;2463;49.948;8.472;2023-08-08T04:16:53;90.28;;;4.35;;
4895;SDS011;2463;49.948;8.472;2023-08-08T04:19:20;90.15;;;4.30;;
4895;SDS011;2463;49.948;8.472;2023-08-08T04:21:46;90.13;;;4.82;;
4895;SDS011;2463;49.948;8.472;2023-08-08T04:24:13;91.05;;;5.15;;
4895;SDS011;2463;49.948;8.472;2023-08-08T04:26:40;90.13;;;4.55;;
4895;SDS011;2463;49.948;8.472;2023-08-08T04:29:07;90.55;;;4.70;;
4895;SDS011;2463;49.948;8.472;2023-08-08T04:31:33;90.13;;;4.28;;
4895;SDS011;2463;49.948;8.472;2023-08-08T04:34:01;90.18;;;4.50;;
4895;SDS011;2463;49.948;8.472;2023-08-08T04:36:28;90.32;;;4.80;;
4895;SDS011;2463;49.948;8.472;2023-08-08T04:38:55;90.07;;;4.35;;
4895;SDS011;2463;49.948;8.472;2023-08-08T04:41:22;92.05;;;4.60;;
4895;SDS011;2463;49.948;8.472;2023-08-08T04:43:49;90.90;;;4.50;;
4895;SDS011;2463;49.948;8.472;2023-08-08T04:46:15;91.13;;;5.00;;
4895;SDS011;2463;49.948;8.472;2023-08-08T04:48:42;89.85;;;4.60;;
4895;SDS011;2463;49.948;8.472;2023-08-08T04:51:09;90.53;;;4.60;;
4895;SDS011;2463;49.948;8.472;2023-08-08T04:53:36;90.32;;;4.60;;
4895;SDS011;2463;49.948;8.472;2023-08-08T04:56:02;90.60;;;4.82;;
4895;SDS011;2463;49.948;8.472;2023-08-08T04:58:30;89.78;;;4.30;;
4895;SDS011;2463;49.948;8.472;2023-08-08T05:00:56;90.82;;;4.68;;
4895;SDS011;2463;49.948;8.472;2023-08-08T05:03:23;90.43;;;4.90;;
4895;SDS011;2463;49.948;8.472;2023-08-08T05:05:50;90.47;;;4.60;;
4895;SDS011;2463;49.948;8.472;2023-08-08T05:08:17;92.50;;;5.00;;
4895;SDS011;2463;49.948;8.472;2023-08-08T05:10:43;90.70;;;4.70;;
4895;SDS011;2463;49.948;8.472;2023-08-08T05:13:10;89.93;;;4.30;;
4895;SDS011;2463;49.948;8.472;2023-08-08T05:15:38;90.95;;;4.25;;
4895;SDS011;2463;49.948;8.472;2023-08-08T05:18:04;89.78;;;4.45;;
4895;SDS011;2463;49.948;8.472;2023-08-08T05:20:31;89.50;;;4.53;;
4895;SDS011;2463;49.948;8.472;2023-08-08T05:22:58;89.82;;;4.22;;
4895;SDS011;2463;49.948;8.472;2023-08-08T05:25:25;89.57;;;4.28;;
4895;SDS011;2463;49.948;8.472;2023-08-08T05:27:51;89.93;;;4.25;;
4895;SDS011;2463;49.948;8.472;2023-08-08T05:30:19;90.03;;;4.60;;
4895;SDS011;2463;49.948;8.472;2023-08-08T05:32:46;92.10;;;4.50;;
4895;SDS011;2463;49.948;8.472;2023-08-08T05:35:13;89.78;;;4.13;;
4895;SDS011;2463;49.948;8.472;2023-08-08T05:37:39;89.63;;;4.28;;
4895;SDS011;2463;49.948;8.472;2023-08-08T05:40:06;90.15;;;4.70;;
4895;SDS011;2463;49.948;8.472;2023-08-08T05:42:34;90.18;;;4.18;;
4895;SDS011;2463;49.948;8.472;2023-08-08T05:45:01;89.47;;;4.32;;
4895;SDS011;2463;49.948;8.472;2023-08-08T05:47:27;89.68;;;4.35;;
4895;SDS011;2463;49.948;8.472;2023-08-08T05:49:54;89.68;;;4.60;;
4895;SDS011;2463;49.948;8.472;2023-08-08T05:52:21;89.28;;;4.15;;
4895;SDS011;2463;49.948;8.472;2023-08-08T05:54:48;90.25;;;4.50;;
4895;SDS011;2463;49.948;8.472;2023-08-08T05:57:15;90.10;;;4.60;;
4895;SDS011;2463;49.948;8.472;2023-08-08T05:59:42;91.07;;;4.40;;
4895;SDS011;2463;49.948;8.472;2023-08-08T06:02:11;89.75;;;4.55;;
4895;SDS011;2463;49.948;8.472;2023-08-08T06:04:37;90.05;;;4.40;;
4895;SDS011;2463;49.948;8.472;2023-08-08T06:07:04;89.43;;;4.38;;
4895;SDS011;2463;49.948;8.472;2023-08-08T06:09:35;88.93;;;4.10;;
4895;SDS011;2463;49.948;8.472;2023-08-08T06:12:03;88.95;;;4.15;;
4895;SDS011;2463;49.948;8.472;2023-08-08T06:14:30;88.82;;;4.20;;
4895;SDS011;2463;49.948;8.472;2023-08-08T06:16:57;89.93;;;4.30;;
4895;SDS011;2463;49.948;8.472;2023-08-08T06:19:24;88.95;;;4.35;;
4895;SDS011;2463;49.948;8.472;2023-08-08T06:21:51;88.32;;;3.78;;
4895;SDS011;2463;49.948;8.472;2023-08-08T06:24:18;88.55;;;4.00;;
4895;SDS011;2463;49.948;8.472;2023-08-08T06:26:44;88.05;;;4.03;;
4895;SDS011;2463;49.948;8.472;2023-08-08T06:29:11;88.10;;;4.13;;
4895;SDS011;2463;49.948;8.472;2023-08-08T06:31:40;87.00;;;3.85;;
4895;SDS011;2463;49.948;8.472;2023-08-08T06:34:07;87.53;;;3.80;;
4895;SDS011;2463;49.948;8.472;2023-08-08T06:36:35;86.82;;;3.50;;
4895;SDS011;2463;49.948;8.472;2023-08-08T06:39:02;85.45;;;3.22;;
4895;SDS011;2463;49.948;8.472;2023-08-08T06:41:29;84.28;;;2.90;;
4895;SDS011;2463;49.948;8.472;2023-08-08T06:43:56;83.82;;;3.00;;
4895;SDS011;2463;49.948;8.472;2023-08-08T06:46:23;84.22;;;3.05;;
4895;SDS011;2463;49.948;8.472;2023-08-08T06:48:51;86.53;;;3.00;;
4895;SDS011;2463;49.948;8.472;2023-08-08T06:51:23;82.95;;;2.80;;
4895;SDS011;2463;49.948;8.472;2023-08-08T06:53:51;82.50;;;2.55;;
4895;SDS011;2463;49.948;8.472;2023-08-08T06:56:18;81.77;;;2.60;;
4895;SDS011;2463;49.948;8.472;2023-08-08T06:58:45;80.23;;;2.70;;
4895;SDS011;2463;49.948;8.472;2023-08-08T07:01:12;81.03;;;2.50;;
4895;SDS011;2463;49.948;8.472;2023-08-08T07:03:39;80.67;;;2.57;;
4895;SDS011;2463;49.948;8.472;2023-08-08T07:06:06;81.87;;;2.53;;
4895;SDS011;2463;49.948;8.472;2023-08-08T07:08:33;79.87;;;2.50;;
4895;SDS011;2463;49.948;8.472;2023-08-08T07:11:00;79.97;;;2.40;;
4895;SDS011;2463;49.948;8.472;2023-08-08T07:13:27;80.63;;;2.70;;
4895;SDS011;2463;49.948;8.472;2023-08-08T07:15:53;78.97;;;2.20;;
4895;SDS011;2463;49.948;8.472;2023-08-08T07:18:20;78.43;;;2.43;;
4895;SDS011;2463;49.948;8.472;2023-08-08T07:20:47;79.80;;;2.20;;
4895;SDS011;2463;49.948;8.472;2023-08-08T07:23:15;80.00;;;2.20;;
4895;SDS011;2463;49.948;8.472;2023-08-08T07:25:42;79.07;;;2.10;;
4895;SDS011;2463;49.948;8.472;2023-08-08T07:28:11;79.50;;;2.43;;
4895;SDS011;2463;49.948;8.472;2023-08-08T07:30:37;80.80;;;2.70;;
4895;SDS011;2463;49.948;8.472;2023-08-08T07:33:04;78.70;;;2.10;;
4895;SDS011;2463;49.948;8.472;2023-08-08T07:35:32;78.67;;;2.20;;
4895;SDS011;2463;49.948;8.472;2023-08-08T07:37:59;79.70;;;2.40;;
4895;SDS011;2463;49.948;8.472;2023-08-08T07:40:26;79.20;;;2.23;;
4895;SDS011;2463;49.948;8.472;2023-08-08T07:42:53;79.17;;;2.37;;
4895;SDS011;2463;49.948;8.472;2023-08-08T07:45:20;79.40;;;2.33;;
4895;SDS011;2463;49.948;8.472;2023-08-08T07:47:47;80.27;;;2.60;;
4895;SDS011;2463;49.948;8.472;2023-08-08T07:50:14;80.40;;;2.50;;
4895;SDS011;2463;49.948;8.472;2023-08-08T07:52:41;80.53;;;2.57;;
4895;SDS011;2463;49.948;8.472;2023-08-08T07:55:08;80.20;;;2.60;;
4895;SDS011;2463;49.948;8.472;2023-08-08T07:57:35;81.37;;;2.70;;
4895;SDS011;2463;49.948;8.472;2023-08-08T08:00:02;80.97;;;2.50;;
4895;SDS011;2463;49.948;8.472;2023-08-08T08:02:42;81.40;;;2.57;;
4895;SDS011;2463;49.948;8.472;2023-08-08T08:05:10;82.47;;;2.70;;
4895;SDS011;2463;49.948;8.472;2023-08-08T08:07:37;82.20;;;2.60;;
4895;SDS011;2463;49.948;8.472;2023-08-08T08:10:05;81.57;;;2.60;;
4895;SDS011;2463;49.948;8.472;2023-08-08T08:12:35;82.47;;;2.67;;
4895;SDS011;2463;49.948;8.472;2023-08-08T08:15:02;81.40;;;2.60;;
4895;SDS011;2463;49.948;8.472;2023-08-08T08:17:30;82.25;;;2.53;;
4895;SDS011;2463;49.948;8.472;2023-08-08T08:19:57;82.53;;;2.80;;
4895;SDS011;2463;49.948;8.472;2023-08-08T08:22:24;82.43;;;2.60;;
4895;SDS011;2463;49.948;8.472;2023-08-08T08:24:51;82.78;;;3.00;;
4895;SDS011;2463;49.948;8.472;2023-08-08T08:27:18;83.45;;;2.78;;
4895;SDS011;2463;49.948;8.472;2023-08-08T08:29:45;83.43;;;3.27;;
4895;SDS011;2463;49.948;8.472;2023-08-08T08:32:11;83.57;;;2.92;;
4895;SDS011;2463;49.948;8.472;2023-08-08T08:34:38;83.63;;;3.00;;
4895;SDS011;2463;49.948;8.472;2023-08-08T08:37:05;83.50;;;2.80;;
4895;SDS011;2463;49.948;8.472;2023-08-08T08:39:31;83.60;;;2.95;;
4895;SDS011;2463;49.948;8.472;2023-08-08T08:41:58;83.55;;;2.70;;
4895;SDS011;2463;49.948;8.472;2023-08-08T08:44:31;83.85;;;2.90;;
4895;SDS011;2463;49.948;8.472;2023-08-08T08:47:01;83.32;;;2.95;;
4895;SDS011;2463;49.948;8.472;2023-08-08T08:49:30;83.70;;;2.92;;
4895;SDS011;2463;49.948;8.472;2023-08-08T08:51:57;83.80;;;2.80;;
4895;SDS011;2463;49.948;8.472;2023-08-08T08:54:31;83.40;;;2.80;;
4895;SDS011;2463;49.948;8.472;2023-08-08T08:56:58;83.75;;;2.80;;
4895;SDS011;2463;49.948;8.472;2023-08-08T08:59:25;83.97;;;3.00;;
4895;SDS011;2463;49.948;8.472;2023-08-08T09:01:52;83.07;;;2.67;;
4895;SDS011;2463;49.948;8.472;2023-08-08T09:04:20;83.57;;;2.90;;
4895;SDS011;2463;49.948;8.472;2023-08-08T09:06:48;85.07;;;2.80;;
4895;SDS011;2463;49.948;8.472;2023-08-08T09:09:18;83.47;;;2.75;;
4895;SDS011;2463;49.948;8.472;2023-08-08T09:11:51;83.22;;;2.70;;
4895;SDS011;2463;49.948;8.472;2023-08-08T09:14:23;83.00;;;2.55;;
4895;SDS011;2463;49.948;8.472;2023-08-08T09:16:51;84.10;;;3.00;;
4895;SDS011;2463;49.948;8.472;2023-08-08T09:19:23;84.35;;;2.90;;
4895;SDS011;2463;49.948;8.472;2023-08-08T09:21:50;92.82;;;3.80;;
4895;SDS011;2463;49.948;8.472;2023-08-08T09:24:18;82.82;;;2.60;;
4895;SDS011;2463;49.948;8.472;2023-08-08T09:26:45;83.22;;;2.65;;
4895;SDS011;2463;49.948;8.472;2023-08-08T09:29:12;82.57;;;2.80;;
4895;SDS011;2463;49.948;8.472;2023-08-08T09:31:41;82.10;;;2.80;;
4895;SDS011;2463;49.948;8.472;2023-08-08T09:34:08;83.70;;;3.03;;
4895;SDS011;2463;49.948;8.472;2023-08-08T09:36:35;82.27;;;2.80;;
4895;SDS011;2463;49.948;8.472;2023-08-08T09:39:03;82.35;;;2.50;;
4895;SDS011;2463;49.948;8.472;2023-08-08T09:41:31;81.87;;;2.93;;
4895;SDS011;2463;49.948;8.472;2023-08-08T09:43:58;82.63;;;2.80;;
4895;SDS011;2463;49.948;8.472;2023-08-08T09:46:25;82.70;;;2.70;;
4895;SDS011;2463;49.948;8.472;2023-08-08T09:48:52;83.40;;;2.77;;
4895;SDS011;2463;49.948;8.472;2023-08-08T09:51:20;82.72;;;2.80;;
4895;SDS011;2463;49.948;8.472;2023-08-08T09:53:47;82.85;;;2.63;;
4895;SDS011;2463;49.948;8.472;2023-08-08T09:56:15;85.00;;;3.10;;
4895;SDS011;2463;49.948;8.472;2023-08-08T09:58:43;82.67;;;2.97;;
4895;SDS011;2463;49.948;8.472;2023-08-08T10:01:12;82.50;;;2.70;;
4895;SDS011;2463;49.948;8.472;2023-08-08T10:03:41;81.37;;;2.80;;
4895;SDS011;2463;49.948;8.472;2023-08-08T10:06:12;82.60;;;2.70;;
4895;SDS011;2463;49.948;8.472;2023-08-08T10:08:40;82.07;;;2.90;;
4895;SDS011;2463;49.948;8.472;2023-08-08T10:11:07;83.07;;;2.80;;
4895;SDS011;2463;49.948;8.472;2023-08-08T10:13:36;80.87;;;2.70;;
4895;SDS011;2463;49.948;8.472;2023-08-08T10:16:09;81.07;;;3.00;;
4895;SDS011;2463;49.948;8.472;2023-08-08T10:18:36;81.17;;;2.70;;
4895;SDS011;2463;49.948;8.472;2023-08-08T10:21:06;81.50;;;2.70;;
4895;SDS011;2463;49.948;8.472;2023-08-08T10:23:36;81.87;;;3.10;;
4895;SDS011;2463;49.948;8.472;2023-08-08T10:26:03;82.10;;;2.60;;
4895;SDS011;2463;49.948;8.472;2023-08-08T10:28:31;82.10;;;2.77;;
4895;SDS011;2463;49.948;8.472;2023-08-08T10:30:59;82.10;;;2.70;;
4895;SDS011;2463;49.948;8.472;2023-08-08T10:33:38;81.87;;;2.77;;
4895;SDS011;2463;49.948;8.472;2023-08-08T10:36:06;81.97;;;2.70;;
4895;SDS011;2463;49.948;8.472;2023-08-08T10:38:47;82.07;;;2.92;;
4895;SDS011;2463;49.948;8.472;2023-08-08T10:41:17;82.60;;;2.60;;
4895;SDS011;2463;49.948;8.472;2023-08-08T10:43:48;81.67;;;2.70;;
4895;SDS011;2463;49.948;8.472;2023-08-08T10:46:26;81.30;;;2.77;;
4895;SDS011;2463;49.948;8.472;2023-08-08T10:48:54;83.73;;;2.63;;
4895;SDS011;2463;49.948;8.472;2023-08-08T10:54:12;82.87;;;2.70;;
4895;SDS011;2463;49.948;8.472;2023-08-08T10:56:41;81.67;;;2.70;;
4895;SDS011;2463;49.948;8.472;2023-08-08T10:59:18;81.67;;;2.70;;
4895;SDS011;2463;49.948;8.472;2023-08-08T11:01:49;82.20;;;2.70;;
4895;SDS011;2463;49.948;8.472;2023-08-08T11:04:18;81.90;;;2.70;;
4895;SDS011;2463;49.948;8.472;2023-08-08T11:06:47;82.47;;;2.60;;
4895;SDS011;2463;49.948;8.472;2023-08-08T11:09:16;83.63;;;2.67;;
4895;SDS011;2463;49.948;8.472;2023-08-08T11:11:44;81.50;;;2.87;;
4895;SDS011;2463;49.948;8.472;2023-08-08T11:16:38;82.27;;;2.80;;
4895;SDS011;2463;49.948;8.472;2023-08-08T11:19:05;83.27;;;2.80;;
4895;SDS011;2463;49.948;8.472;2023-08-08T11:21:36;82.22;;;2.90;;
4895;SDS011;2463;49.948;8.472;2023-08-08T11:24:05;82.03;;;2.67;;
4895;SDS011;2463;49.948;8.472;2023-08-08T11:26:33;82.70;;;2.80;;
4895;SDS011;2463;49.948;8.472;2023-08-08T11:29:00;81.97;;;2.60;;
4895;SDS011;2463;49.948;8.472;2023-08-08T11:31:29;81.97;;;2.80;;
4895;SDS011;2463;49.948;8.472;2023-08-08T11:33:57;81.20;;;2.63;;
4895;SDS011;2463;49.948;8.472;2023-08-08T11:36:34;81.40;;;2.73;;
4895;SDS011;2463;49.948;8.472;2023-08-08T11:39:02;82.30;;;2.78;;
4895;SDS011;2463;49.948;8.472;2023-08-08T11:41:36;81.60;;;2.70;;
4895;SDS011;2463;49.948;8.472;2023-08-08T11:44:04;83.00;;;3.00;;
4895;SDS011;2463;49.948;8.472;2023-08-08T11:46:32;82.70;;;2.90;;
4895;SDS011;2463;49.948;8.472;2023-08-08T11:49:05;82.03;;;2.70;;
4895;SDS011;2463;49.948;8.472;2023-08-08T11:51:33;84.55;;;2.90;;
4895;SDS011;2463;49.948;8.472;2023-08-08T11:54:01;82.00;;;2.70;;
4895;SDS011;2463;49.948;8.472;2023-08-08T11:56:32;82.60;;;3.00;;
4895;SDS011;2463;49.948;8.472;2023-08-08T11:59:00;81.77;;;3.00;;
4895;SDS011;2463;49.948;8.472;2023-08-08T12:01:28;81.78;;;2.70;;
4895;SDS011;2463;49.948;8.472;2023-08-08T12:03:57;81.67;;;2.60;;
4895;SDS011;2463;49.948;8.472;2023-08-08T12:06:28;82.07;;;2.80;;
4895;SDS011;2463;49.948;8.472;2023-08-08T12:08:55;81.40;;;2.80;;
4895;SDS011;2463;49.948;8.472;2023-08-08T12:11:22;82.07;;;2.90;;
4895;SDS011;2463;49.948;8.472;2023-08-08T12:13:57;80.67;;;2.87;;
4895;SDS011;2463;49.948;8.472;2023-08-08T12:16:29;81.17;;;2.80;;
4895;SDS011;2463;49.948;8.472;2023-08-08T12:19:00;80.77;;;2.53;;
4895;SDS011;2463;49.948;8.472;2023-08-08T12:21:28;81.27;;;2.83;;
4895;SDS011;2463;49.948;8.472;2023-08-08T12:23:55;80.33;;;2.57;;
4895;SDS011;2463;49.948;8.472;2023-08-08T12:26:22;81.50;;;2.80;;
4895;SDS011;2463;49.948;8.472;2023-08-08T12:28:49;81.80;;;2.50;;
4895;SDS011;2463;49.948;8.472;2023-08-08T12:31:19;81.30;;;2.50;;
4895;SDS011;2463;49.948;8.472;2023-08-08T12:33:46;81.60;;;2.60;;
4895;SDS011;2463;49.948;8.472;2023-08-08T12:36:14;81.10;;;2.80;;
4895;SDS011;2463;49.948;8.472;2023-08-08T12:38:41;81.17;;;2.70;;
4895;SDS011;2463;49.948;8.472;2023-08-08T12:41:08;81.67;;;3.00;;
4895;SDS011;2463;49.948;8.472;2023-08-08T12:43:37;81.87;;;2.60;;
4895;SDS011;2463;49.948;8.472;2023-08-08T12:46:03;81.80;;;2.67;;
4895;SDS011;2463;49.948;8.472;2023-08-08T12:48:30;82.87;;;2.80;;
4895;SDS011;2463;49.948;8.472;2023-08-08T12:50:57;80.97;;;2.63;;
4895;SDS011;2463;49.948;8.472;2023-08-08T12:53:24;80.60;;;2.70;;
4895;SDS011;2463;49.948;8.472;2023-08-08T12:55:51;82.13;;;2.80;;
4895;SDS011;2463;49.948;8.472;2023-08-08T12:58:18;83.00;;;3.03;;
4895;SDS011;2463;49.948;8.472;2023-08-08T13:00:45;81.27;;;2.70;;
4895;SDS011;2463;49.948;8.472;2023-08-08T13:03:12;82.90;;;2.90;;
4895;SDS011;2463;49.948;8.472;2023-08-08T13:05:39;81.83;;;2.70;;
4895;SDS011;2463;49.948;8.472;2023-08-08T13:08:06;83.90;;;3.07;;
4895;SDS011;2463;49.948;8.472;2023-08-08T13:10:32;82.32;;;2.90;;
4895;SDS011;2463;49.948;8.472;2023-08-08T13:12:59;82.37;;;2.73;;
4895;SDS011;2463;49.948;8.472;2023-08-08T13:15:26;82.07;;;2.70;;
4895;SDS011;2463;49.948;8.472;2023-08-08T13:17:53;81.97;;;2.67;;
4895;SDS011;2463;49.948;8.472;2023-08-08T13:20:19;83.03;;;2.93;;
4895;SDS011;2463;49.948;8.472;2023-08-08T13:22:46;83.67;;;2.93;;
4895;SDS011;2463;49.948;8.472;2023-08-08T13:25:13;82.00;;;2.70;;
4895;SDS011;2463;49.948;8.472;2023-08-08T13:27:41;80.93;;;2.60;;
4895;SDS011;2463;49.948;8.472;2023-08-08T13:30:08;81.67;;;2.53;;
4895;SDS011;2463;49.948;8.472;2023-08-08T13:32:35;81.90;;;2.80;;
4895;SDS011;2463;49.948;8.472;2023-08-08T13:35:02;81.87;;;2.80;;
4895;SDS011;2463;49.948;8.472;2023-08-08T13:37:30;82.30;;;3.00;;
4895;SDS011;2463;49.948;8.472;2023-08-08T13:39:57;84.27;;;2.97;;
4895;SDS011;2463;49.948;8.472;2023-08-08T13:42:24;82.70;;;2.87;;
4895;SDS011;2463;49.948;8.472;2023-08-08T13:44:51;82.67;;;2.90;;
4895;SDS011;2463;49.948;8.472;2023-08-08T13:47:20;82.07;;;2.60;;
4895;SDS011;2463;49.948;8.472;2023-08-08T13:49:46;83.90;;;3.10;;
4895;SDS011;2463;49.948;8.472;2023-08-08T13:52:13;82.37;;;2.83;;
4895;SDS011;2463;49.948;8.472;2023-08-08T13:54:40;81.82;;;2.70;;
4895;SDS011;2463;49.948;8.472;2023-08-08T13:57:07;81.60;;;2.40;;
4895;SDS011;2463;49.948;8.472;2023-08-08T13:59:33;81.37;;;2.60;;
4895;SDS011;2463;49.948;8.472;2023-08-08T14:02:00;81.60;;;2.70;;
4895;SDS011;2463;49.948;8.472;2023-08-08T14:04:27;81.30;;;2.50;;
4895;SDS011;2463;49.948;8.472;2023-08-08T14:06:54;82.75;;;3.00;;
4895;SDS011;2463;49.948;8.472;2023-08-08T14:09:21;82.32;;;2.67;;
4895;SDS011;2463;49.948;8.472;2023-08-08T14:11:49;81.87;;;2.90;;
4895;SDS011;2463;49.948;8.472;2023-08-08T14:14:15;81.72;;;2.75;;
4895;SDS011;2463;49.948;8.472;2023-08-08T14:16:42;82.00;;;2.77;;
4895;SDS011;2463;49.948;8.472;2023-08-08T14:19:09;82.77;;;2.80;;
4895;SDS011;2463;49.948;8.472;2023-08-08T14:21:36;82.03;;;2.88;;
4895;SDS011;2463;49.948;8.472;2023-08-08T14:24:03;83.57;;;2.90;;
4895;SDS011;2463;49.948;8.472;2023-08-08T14:26:30;83.33;;;3.03;;
4895;SDS011;2463;49.948;8.472;2023-08-08T14:28:57;82.60;;;2.80;;
4895;SDS011;2463;49.948;8.472;2023-08-08T14:31:24;81.93;;;2.80;;
4895;SDS011;2463;49.948;8.472;2023-08-08T14:33:51;82.47;;;2.90;;
4895;SDS011;2463;49.948;8.472;2023-08-08T14:36:17;82.72;;;2.72;;
4895;SDS011;2463;49.948;8.472;2023-08-08T14:38:44;84.07;;;3.20;;
4895;SDS011;2463;49.948;8.472;2023-08-08T14:41:11;83.32;;;3.00;;
4895;SDS011;2463;49.948;8.472;2023-08-08T14:43:38;83.17;;;3.00;;
4895;SDS011;2463;49.948;8.472;2023-08-08T14:46:04;83.70;;;3.08;;
4895;SDS011;2463;49.948;8.472;2023-08-08T14:48:31;82.88;;;3.20;;
4895;SDS011;2463;49.948;8.472;2023-08-08T14:50:59;83.97;;;2.90;;
4895;SDS011;2463;49.948;8.472;2023-08-08T14:53:27;83.43;;;2.90;;
4895;SDS011;2463;49.948;8.472;2023-08-08T14:55:54;83.93;;;3.08;;
4895;SDS011;2463;49.948;8.472;2023-08-08T14:58:20;84.00;;;3.05;;
4895;SDS011;2463;49.948;8.472;2023-08-08T15:00:49;84.80;;;3.10;;
4895;SDS011;2463;49.948;8.472;2023-08-08T15:03:16;83.60;;;2.95;;
4895;SDS011;2463;49.948;8.472;2023-08-08T15:05:45;84.07;;;3.05;;
4895;SDS011;2463;49.948;8.472;2023-08-08T15:08:14;83.70;;;2.70;;